sensor_id;sensor_type;location;lat;lon;timestamp;P1;durP1;ratioP1;P2;durP2;ratioP2
65009;SDS011;51556;50.002;22.014;2023-02-11T00:00:07;39.10;;;19.20;;
65009;SDS011;51556;50.002;22.014;2023-02-11T00:02:34;43.70;;;20.70;;
65009;SDS011;51556;50.002;22.014;2023-02-11T00:04:59;39.40;;;19.30;;
65009;SDS011;51556;50.002;22.014;2023-02-11T00:07:28;43.60;;;21.10;;
65009;SDS011;51556;50.002;22.014;2023-02-11T00:09:53;40.30;;;19.80;;
65009;SDS011;51556;50.002;22.014;2023-02-11T00:12:19;39.20;;;20.10;;
65009;SDS011;51556;50.002;22.014;2023-02-11T00:14:45;38.30;;;19.90;;
65009;SDS011;51556;50.002;22.014;2023-02-11T00:17:10;40.70;;;19.80;;
65009;SDS011;51556;50.002;22.014;2023-02-11T00:19:36;32.20;;;15.10;;
65009;SDS011;51556;50.002;22.014;2023-02-11T00:22:01;35.30;;;17.10;;
65009;SDS011;51556;50.002;22.014;2023-02-11T00:24:26;32.70;;;17.90;;
65009;SDS011;51556;50.002;22.014;2023-02-11T00:26:54;31.70;;;17.10;;
65009;SDS011;51556;50.002;22.014;2023-02-11T00:29:19;32.90;;;16.00;;
65009;SDS011;51556;50.002;22.014;2023-02-11T00:31:45;34.10;;;16.00;;
65009;SDS011;51556;50.002;22.014;2023-02-11T00:34:10;34.10;;;17.00;;
65009;SDS011;51556;50.002;22.014;2023-02-11T00:36:36;34.50;;;17.00;;
65009;SDS011;51556;50.002;22.014;2023-02-11T00:39:01;33.70;;;16.90;;
65009;SDS011;51556;50.002;22.014;2023-02-11T00:41:27;34.20;;;16.60;;
65009;SDS011;51556;50.002;22.014;2023-02-11T00:43:52;39.20;;;17.40;;
65009;SDS011;51556;50.002;22.014;2023-02-11T00:46:18;35.00;;;18.10;;
65009;SDS011;51556;50.002;22.014;2023-02-11T00:48:44;31.40;;;14.80;;
65009;SDS011;51556;50.002;22.014;2023-02-11T00:51:09;28.70;;;15.30;;
65009;SDS011;51556;50.002;22.014;2023-02-11T00:53:36;32.90;;;16.70;;
65009;SDS011;51556;50.002;22.014;2023-02-11T00:56:02;31.70;;;16.70;;
65009;SDS011;51556;50.002;22.014;2023-02-11T00:58:28;35.80;;;17.10;;
65009;SDS011;51556;50.002;22.014;2023-02-11T01:00:54;28.20;;;15.50;;
65009;SDS011;51556;50.002;22.014;2023-02-11T01:03:20;34.70;;;16.10;;
65009;SDS011;51556;50.002;22.014;2023-02-11T01:05:45;22.20;;;12.20;;
65009;SDS011;51556;50.002;22.014;2023-02-11T01:08:10;28.80;;;14.50;;
65009;SDS011;51556;50.002;22.014;2023-02-11T01:10:36;30.10;;;15.70;;
65009;SDS011;51556;50.002;22.014;2023-02-11T01:13:02;28.80;;;15.00;;
65009;SDS011;51556;50.002;22.014;2023-02-11T01:15:28;32.80;;;17.80;;
65009;SDS011;51556;50.002;22.014;2023-02-11T01:17:54;30.40;;;15.00;;
65009;SDS011;51556;50.002;22.014;2023-02-11T01:20:21;30.40;;;16.10;;
65009;SDS011;51556;50.002;22.014;2023-02-11T01:22:48;32.80;;;16.40;;
65009;SDS011;51556;50.002;22.014;2023-02-11T01:25:14;31.50;;;14.70;;
65009;SDS011;51556;50.002;22.014;2023-02-11T01:27:39;34.20;;;16.00;;
65009;SDS011;51556;50.002;22.014;2023-02-11T01:30:05;33.30;;;17.10;;
65009;SDS011;51556;50.002;22.014;2023-02-11T01:32:32;28.50;;;14.90;;
65009;SDS011;51556;50.002;22.014;2023-02-11T01:34:58;30.90;;;14.00;;
65009;SDS011;51556;50.002;22.014;2023-02-11T01:37:23;34.40;;;16.00;;
65009;SDS011;51556;50.002;22.014;2023-02-11T01:39:49;27.30;;;15.90;;
65009;SDS011;51556;50.002;22.014;2023-02-11T01:42:15;31.90;;;17.10;;
65009;SDS011;51556;50.002;22.014;2023-02-11T01:44:42;26.00;;;13.20;;
65009;SDS011;51556;50.002;22.014;2023-02-11T01:47:07;32.70;;;15.50;;
65009;SDS011;51556;50.002;22.014;2023-02-11T01:49:35;30.60;;;15.10;;
65009;SDS011;51556;50.002;22.014;2023-02-11T01:52:20;24.40;;;11.70;;
65009;SDS011;51556;50.002;22.014;2023-02-11T01:54:52;32.60;;;17.00;;
65009;SDS011;51556;50.002;22.014;2023-02-11T01:57:39;34.80;;;17.70;;
65009;SDS011;51556;50.002;22.014;2023-02-11T02:02:53;33.50;;;15.10;;
65009;SDS011;51556;50.002;22.014;2023-02-11T02:08:09;33.90;;;16.30;;
65009;SDS011;51556;50.002;22.014;2023-02-11T02:10:45;38.10;;;17.60;;
65009;SDS011;51556;50.002;22.014;2023-02-11T02:13:13;39.90;;;16.90;;
65009;SDS011;51556;50.002;22.014;2023-02-11T02:15:40;29.00;;;13.70;;
65009;SDS011;51556;50.002;22.014;2023-02-11T02:23:45;33.40;;;15.80;;
65009;SDS011;51556;50.002;22.014;2023-02-11T02:37:30;36.40;;;17.60;;
65009;SDS011;51556;50.002;22.014;2023-02-11T02:40:04;38.80;;;18.30;;
65009;SDS011;51556;50.002;22.014;2023-02-11T02:42:36;31.00;;;15.80;;
65009;SDS011;51556;50.002;22.014;2023-02-11T02:45:05;36.50;;;17.20;;
65009;SDS011;51556;50.002;22.014;2023-02-11T02:47:32;37.70;;;18.20;;
65009;SDS011;51556;50.002;22.014;2023-02-11T02:49:57;34.40;;;17.50;;
65009;SDS011;51556;50.002;22.014;2023-02-11T02:52:30;43.20;;;19.10;;
65009;SDS011;51556;50.002;22.014;2023-02-11T02:55:44;34.40;;;16.60;;
65009;SDS011;51556;50.002;22.014;2023-02-11T03:04:20;38.30;;;19.10;;
65009;SDS011;51556;50.002;22.014;2023-02-11T03:06:54;38.60;;;18.80;;
65009;SDS011;51556;50.002;22.014;2023-02-11T03:09:29;39.10;;;18.80;;
65009;SDS011;51556;50.002;22.014;2023-02-11T03:12:01;36.40;;;17.60;;
65009;SDS011;51556;50.002;22.014;2023-02-11T03:14:28;39.10;;;17.90;;
65009;SDS011;51556;50.002;22.014;2023-02-11T03:16:56;31.10;;;15.50;;
65009;SDS011;51556;50.002;22.014;2023-02-11T03:19:34;32.30;;;14.10;;
65009;SDS011;51556;50.002;22.014;2023-02-11T03:22:04;35.10;;;16.40;;
65009;SDS011;51556;50.002;22.014;2023-02-11T03:24:36;35.30;;;17.60;;
65009;SDS011;51556;50.002;22.014;2023-02-11T03:30:17;37.20;;;18.60;;
65009;SDS011;51556;50.002;22.014;2023-02-11T03:33:00;31.00;;;15.60;;
65009;SDS011;51556;50.002;22.014;2023-02-11T03:35:35;38.40;;;19.80;;
65009;SDS011;51556;50.002;22.014;2023-02-11T03:38:06;39.30;;;18.30;;
65009;SDS011;51556;50.002;22.014;2023-02-11T03:40:38;37.30;;;18.40;;
65009;SDS011;51556;50.002;22.014;2023-02-11T03:43:07;37.80;;;18.70;;
65009;SDS011;51556;50.002;22.014;2023-02-11T03:45:37;31.40;;;15.00;;
65009;SDS011;51556;50.002;22.014;2023-02-11T03:50:48;31.40;;;15.10;;
65009;SDS011;51556;50.002;22.014;2023-02-11T03:53:15;32.10;;;16.10;;
65009;SDS011;51556;50.002;22.014;2023-02-11T03:55:42;34.60;;;16.80;;
65009;SDS011;51556;50.002;22.014;2023-02-11T03:58:09;31.00;;;16.10;;
65009;SDS011;51556;50.002;22.014;2023-02-11T04:00:36;38.70;;;19.90;;
65009;SDS011;51556;50.002;22.014;2023-02-11T04:03:03;37.50;;;17.90;;
65009;SDS011;51556;50.002;22.014;2023-02-11T04:05:29;37.60;;;17.80;;
65009;SDS011;51556;50.002;22.014;2023-02-11T04:07:55;36.80;;;15.60;;
65009;SDS011;51556;50.002;22.014;2023-02-11T04:10:21;35.20;;;17.50;;
65009;SDS011;51556;50.002;22.014;2023-02-11T04:12:46;40.50;;;20.10;;
65009;SDS011;51556;50.002;22.014;2023-02-11T04:15:12;30.20;;;13.60;;
65009;SDS011;51556;50.002;22.014;2023-02-11T04:17:38;37.10;;;18.90;;
65009;SDS011;51556;50.002;22.014;2023-02-11T04:20:03;32.70;;;16.40;;
65009;SDS011;51556;50.002;22.014;2023-02-11T04:22:29;41.60;;;20.10;;
65009;SDS011;51556;50.002;22.014;2023-02-11T04:24:54;38.60;;;19.00;;
65009;SDS011;51556;50.002;22.014;2023-02-11T04:27:20;38.30;;;19.40;;
65009;SDS011;51556;50.002;22.014;2023-02-11T04:29:45;28.20;;;14.50;;
65009;SDS011;51556;50.002;22.014;2023-02-11T04:32:10;37.90;;;18.70;;
65009;SDS011;51556;50.002;22.014;2023-02-11T04:34:36;36.20;;;15.80;;
65009;SDS011;51556;50.002;22.014;2023-02-11T04:37:01;37.80;;;17.70;;
65009;SDS011;51556;50.002;22.014;2023-02-11T04:39:27;33.90;;;16.30;;
65009;SDS011;51556;50.002;22.014;2023-02-11T04:41:52;36.20;;;17.90;;
65009;SDS011;51556;50.002;22.014;2023-02-11T04:44:18;35.40;;;16.80;;
65009;SDS011;51556;50.002;22.014;2023-02-11T04:46:43;35.80;;;17.00;;
65009;SDS011;51556;50.002;22.014;2023-02-11T04:49:11;39.30;;;18.30;;
65009;SDS011;51556;50.002;22.014;2023-02-11T04:51:37;33.10;;;16.70;;
65009;SDS011;51556;50.002;22.014;2023-02-11T04:54:03;37.70;;;18.10;;
65009;SDS011;51556;50.002;22.014;2023-02-11T04:56:28;34.70;;;16.30;;
65009;SDS011;51556;50.002;22.014;2023-02-11T04:58:54;33.10;;;15.80;;
65009;SDS011;51556;50.002;22.014;2023-02-11T05:01:19;27.40;;;14.20;;
65009;SDS011;51556;50.002;22.014;2023-02-11T05:03:45;36.60;;;18.10;;
65009;SDS011;51556;50.002;22.014;2023-02-11T05:06:10;37.70;;;17.60;;
65009;SDS011;51556;50.002;22.014;2023-02-11T05:08:35;43.70;;;19.80;;
65009;SDS011;51556;50.002;22.014;2023-02-11T05:11:01;35.70;;;16.70;;
65009;SDS011;51556;50.002;22.014;2023-02-11T05:13:27;38.40;;;19.00;;
65009;SDS011;51556;50.002;22.014;2023-02-11T05:15:53;38.90;;;17.90;;
65009;SDS011;51556;50.002;22.014;2023-02-11T05:18:19;35.50;;;17.40;;
65009;SDS011;51556;50.002;22.014;2023-02-11T05:20:45;34.40;;;18.00;;
65009;SDS011;51556;50.002;22.014;2023-02-11T05:23:11;38.00;;;18.20;;
65009;SDS011;51556;50.002;22.014;2023-02-11T05:25:37;34.50;;;17.00;;
65009;SDS011;51556;50.002;22.014;2023-02-11T05:28:02;39.20;;;18.30;;
65009;SDS011;51556;50.002;22.014;2023-02-11T05:30:28;35.90;;;18.00;;
65009;SDS011;51556;50.002;22.014;2023-02-11T05:32:53;30.10;;;14.50;;
65009;SDS011;51556;50.002;22.014;2023-02-11T05:35:19;36.30;;;18.40;;
65009;SDS011;51556;50.002;22.014;2023-02-11T05:37:44;38.50;;;19.00;;
65009;SDS011;51556;50.002;22.014;2023-02-11T05:40:10;38.40;;;18.60;;
65009;SDS011;51556;50.002;22.014;2023-02-11T05:42:36;27.10;;;13.30;;
65009;SDS011;51556;50.002;22.014;2023-02-11T05:45:01;42.30;;;19.50;;
65009;SDS011;51556;50.002;22.014;2023-02-11T05:47:27;40.60;;;22.10;;
65009;SDS011;51556;50.002;22.014;2023-02-11T05:49:52;36.20;;;18.30;;
65009;SDS011;51556;50.002;22.014;2023-02-11T05:52:18;42.00;;;18.00;;
65009;SDS011;51556;50.002;22.014;2023-02-11T05:54:44;33.60;;;17.10;;
65009;SDS011;51556;50.002;22.014;2023-02-11T05:57:10;39.10;;;18.60;;
65009;SDS011;51556;50.002;22.014;2023-02-11T05:59:35;40.30;;;18.70;;
65009;SDS011;51556;50.002;22.014;2023-02-11T06:02:01;42.30;;;20.30;;
65009;SDS011;51556;50.002;22.014;2023-02-11T06:04:26;46.30;;;20.10;;
65009;SDS011;51556;50.002;22.014;2023-02-11T06:06:52;41.40;;;19.40;;
65009;SDS011;51556;50.002;22.014;2023-02-11T06:09:17;36.50;;;17.40;;
65009;SDS011;51556;50.002;22.014;2023-02-11T06:11:43;32.60;;;16.90;;
65009;SDS011;51556;50.002;22.014;2023-02-11T06:14:08;28.50;;;14.20;;
65009;SDS011;51556;50.002;22.014;2023-02-11T06:16:35;35.00;;;13.80;;
65009;SDS011;51556;50.002;22.014;2023-02-11T06:19:00;25.50;;;11.50;;
65009;SDS011;51556;50.002;22.014;2023-02-11T06:21:26;39.20;;;18.80;;
65009;SDS011;51556;50.002;22.014;2023-02-11T06:23:51;39.00;;;17.00;;
65009;SDS011;51556;50.002;22.014;2023-02-11T06:26:18;33.20;;;14.70;;
65009;SDS011;51556;50.002;22.014;2023-02-11T06:28:45;41.50;;;19.70;;
65009;SDS011;51556;50.002;22.014;2023-02-11T06:31:11;33.40;;;14.90;;
65009;SDS011;51556;50.002;22.014;2023-02-11T06:33:37;33.50;;;15.20;;
65009;SDS011;51556;50.002;22.014;2023-02-11T06:36:03;38.40;;;17.60;;
65009;SDS011;51556;50.002;22.014;2023-02-11T06:38:36;41.30;;;18.20;;
65009;SDS011;51556;50.002;22.014;2023-02-11T06:41:01;34.60;;;15.20;;
65009;SDS011;51556;50.002;22.014;2023-02-11T06:43:27;36.20;;;16.80;;
65009;SDS011;51556;50.002;22.014;2023-02-11T06:45:52;38.20;;;18.00;;
65009;SDS011;51556;50.002;22.014;2023-02-11T06:48:19;32.30;;;14.90;;
65009;SDS011;51556;50.002;22.014;2023-02-11T06:50:44;33.40;;;17.00;;
65009;SDS011;51556;50.002;22.014;2023-02-11T06:53:10;39.70;;;18.60;;
65009;SDS011;51556;50.002;22.014;2023-02-11T06:55:35;36.30;;;17.60;;
65009;SDS011;51556;50.002;22.014;2023-02-11T06:58:01;38.90;;;19.80;;
65009;SDS011;51556;50.002;22.014;2023-02-11T07:00:26;30.20;;;14.20;;
65009;SDS011;51556;50.002;22.014;2023-02-11T07:02:53;43.60;;;19.60;;
65009;SDS011;51556;50.002;22.014;2023-02-11T07:05:18;41.80;;;17.20;;
65009;SDS011;51556;50.002;22.014;2023-02-11T07:07:44;40.60;;;18.80;;
65009;SDS011;51556;50.002;22.014;2023-02-11T07:10:09;42.80;;;19.90;;
65009;SDS011;51556;50.002;22.014;2023-02-11T07:12:35;45.50;;;19.80;;
65009;SDS011;51556;50.002;22.014;2023-02-11T07:15:00;37.50;;;18.20;;
65009;SDS011;51556;50.002;22.014;2023-02-11T07:17:26;44.10;;;19.90;;
65009;SDS011;51556;50.002;22.014;2023-02-11T07:19:52;39.10;;;19.10;;
65009;SDS011;51556;50.002;22.014;2023-02-11T07:22:17;41.80;;;18.50;;
65009;SDS011;51556;50.002;22.014;2023-02-11T07:24:42;31.70;;;16.10;;
65009;SDS011;51556;50.002;22.014;2023-02-11T07:27:08;36.70;;;17.60;;
65009;SDS011;51556;50.002;22.014;2023-02-11T07:29:34;42.30;;;20.70;;
65009;SDS011;51556;50.002;22.014;2023-02-11T07:31:59;39.50;;;19.60;;
65009;SDS011;51556;50.002;22.014;2023-02-11T07:34:24;38.70;;;18.80;;
65009;SDS011;51556;50.002;22.014;2023-02-11T07:36:50;31.30;;;15.20;;
65009;SDS011;51556;50.002;22.014;2023-02-11T07:39:15;35.80;;;17.70;;
65009;SDS011;51556;50.002;22.014;2023-02-11T07:41:41;35.60;;;17.70;;
65009;SDS011;51556;50.002;22.014;2023-02-11T07:44:08;41.80;;;19.50;;
65009;SDS011;51556;50.002;22.014;2023-02-11T07:46:34;32.50;;;16.80;;
65009;SDS011;51556;50.002;22.014;2023-02-11T07:48:59;41.20;;;19.70;;
65009;SDS011;51556;50.002;22.014;2023-02-11T07:51:26;36.20;;;17.00;;
65009;SDS011;51556;50.002;22.014;2023-02-11T07:53:54;30.00;;;15.00;;
65009;SDS011;51556;50.002;22.014;2023-02-11T07:56:21;38.40;;;17.20;;
65009;SDS011;51556;50.002;22.014;2023-02-11T07:58:47;37.70;;;17.80;;
65009;SDS011;51556;50.002;22.014;2023-02-11T08:01:15;36.20;;;17.80;;
65009;SDS011;51556;50.002;22.014;2023-02-11T08:03:43;31.20;;;15.00;;
65009;SDS011;51556;50.002;22.014;2023-02-11T08:06:10;34.20;;;18.00;;
65009;SDS011;51556;50.002;22.014;2023-02-11T08:08:37;40.40;;;19.90;;
65009;SDS011;51556;50.002;22.014;2023-02-11T08:13:32;34.60;;;15.50;;
65009;SDS011;51556;50.002;22.014;2023-02-11T08:15:58;34.60;;;17.20;;
65009;SDS011;51556;50.002;22.014;2023-02-11T08:18:23;42.60;;;19.70;;
65009;SDS011;51556;50.002;22.014;2023-02-11T08:20:49;34.80;;;16.40;;
65009;SDS011;51556;50.002;22.014;2023-02-11T08:23:14;40.70;;;17.70;;
65009;SDS011;51556;50.002;22.014;2023-02-11T08:25:39;39.10;;;19.20;;
65009;SDS011;51556;50.002;22.014;2023-02-11T08:28:05;34.00;;;15.90;;
65009;SDS011;51556;50.002;22.014;2023-02-11T08:30:30;32.00;;;15.30;;
65009;SDS011;51556;50.002;22.014;2023-02-11T08:32:56;37.70;;;18.40;;
65009;SDS011;51556;50.002;22.014;2023-02-11T08:35:21;43.80;;;20.20;;
65009;SDS011;51556;50.002;22.014;2023-02-11T08:37:47;37.50;;;18.10;;
65009;SDS011;51556;50.002;22.014;2023-02-11T08:40:12;33.40;;;16.00;;
65009;SDS011;51556;50.002;22.014;2023-02-11T08:42:38;35.40;;;17.70;;
65009;SDS011;51556;50.002;22.014;2023-02-11T08:45:03;39.70;;;18.10;;
65009;SDS011;51556;50.002;22.014;2023-02-11T08:47:29;36.40;;;17.80;;
65009;SDS011;51556;50.002;22.014;2023-02-11T08:49:55;36.00;;;17.00;;
65009;SDS011;51556;50.002;22.014;2023-02-11T08:52:21;36.80;;;17.20;;
65009;SDS011;51556;50.002;22.014;2023-02-11T08:54:46;37.00;;;19.10;;
65009;SDS011;51556;50.002;22.014;2023-02-11T08:57:12;33.70;;;16.20;;
65009;SDS011;51556;50.002;22.014;2023-02-11T08:59:37;34.60;;;18.20;;
65009;SDS011;51556;50.002;22.014;2023-02-11T09:02:04;40.30;;;20.80;;
65009;SDS011;51556;50.002;22.014;2023-02-11T09:04:30;38.20;;;18.70;;
65009;SDS011;51556;50.002;22.014;2023-02-11T09:06:58;37.50;;;19.00;;
65009;SDS011;51556;50.002;22.014;2023-02-11T09:09:33;35.20;;;16.80;;
65009;SDS011;51556;50.002;22.014;2023-02-11T09:12:01;45.50;;;22.80;;
65009;SDS011;51556;50.002;22.014;2023-02-11T09:14:38;38.50;;;18.30;;
65009;SDS011;51556;50.002;22.014;2023-02-11T09:17:05;38.60;;;18.80;;
65009;SDS011;51556;50.002;22.014;2023-02-11T09:19:30;32.60;;;17.20;;
65009;SDS011;51556;50.002;22.014;2023-02-11T09:21:56;41.90;;;21.10;;
65009;SDS011;51556;50.002;22.014;2023-02-11T09:24:21;37.90;;;18.30;;
65009;SDS011;51556;50.002;22.014;2023-02-11T09:26:46;40.60;;;19.80;;
65009;SDS011;51556;50.002;22.014;2023-02-11T09:29:13;39.00;;;19.70;;
65009;SDS011;51556;50.002;22.014;2023-02-11T09:31:38;44.50;;;20.20;;
65009;SDS011;51556;50.002;22.014;2023-02-11T09:34:04;39.00;;;18.90;;
65009;SDS011;51556;50.002;22.014;2023-02-11T09:36:31;40.50;;;19.80;;
65009;SDS011;51556;50.002;22.014;2023-02-11T09:38:59;41.80;;;19.60;;
65009;SDS011;51556;50.002;22.014;2023-02-11T09:44:01;35.80;;;17.40;;
65009;SDS011;51556;50.002;22.014;2023-02-11T09:46:30;38.20;;;18.30;;
65009;SDS011;51556;50.002;22.014;2023-02-11T09:48:59;35.50;;;16.70;;
65009;SDS011;51556;50.002;22.014;2023-02-11T09:51:32;40.80;;;19.80;;
65009;SDS011;51556;50.002;22.014;2023-02-11T09:54:15;42.10;;;19.50;;
65009;SDS011;51556;50.002;22.014;2023-02-11T09:56:47;35.80;;;17.50;;
65009;SDS011;51556;50.002;22.014;2023-02-11T09:59:13;38.70;;;19.20;;
65009;SDS011;51556;50.002;22.014;2023-02-11T10:21:28;40.70;;;19.60;;
65009;SDS011;51556;50.002;22.014;2023-02-11T10:24:02;31.60;;;15.50;;
65009;SDS011;51556;50.002;22.014;2023-02-11T10:26:34;34.70;;;17.20;;
65009;SDS011;51556;50.002;22.014;2023-02-11T10:29:02;32.60;;;14.40;;
65009;SDS011;51556;50.002;22.014;2023-02-11T10:31:39;34.00;;;17.00;;
65009;SDS011;51556;50.002;22.014;2023-02-11T10:34:11;33.40;;;16.40;;
65009;SDS011;51556;50.002;22.014;2023-02-11T10:36:39;34.90;;;17.50;;
65009;SDS011;51556;50.002;22.014;2023-02-11T10:39:16;37.00;;;18.70;;
65009;SDS011;51556;50.002;22.014;2023-02-11T10:41:47;44.60;;;20.70;;
65009;SDS011;51556;50.002;22.014;2023-02-11T10:44:28;40.00;;;18.90;;
65009;SDS011;51556;50.002;22.014;2023-02-11T10:46:58;32.80;;;16.90;;
65009;SDS011;51556;50.002;22.014;2023-02-11T10:49:34;34.20;;;17.30;;
65009;SDS011;51556;50.002;22.014;2023-02-11T10:54:54;34.60;;;18.00;;
65009;SDS011;51556;50.002;22.014;2023-02-11T10:57:20;43.50;;;20.20;;
65009;SDS011;51556;50.002;22.014;2023-02-11T10:59:46;37.70;;;18.80;;
65009;SDS011;51556;50.002;22.014;2023-02-11T11:05:05;38.30;;;19.00;;
65009;SDS011;51556;50.002;22.014;2023-02-11T11:07:53;37.60;;;18.80;;
65009;SDS011;51556;50.002;22.014;2023-02-11T11:10:37;32.50;;;15.70;;
65009;SDS011;51556;50.002;22.014;2023-02-11T11:18:39;33.10;;;16.40;;
65009;SDS011;51556;50.002;22.014;2023-02-11T11:21:10;36.40;;;17.80;;
65009;SDS011;51556;50.002;22.014;2023-02-11T11:26:07;38.30;;;18.50;;
65009;SDS011;51556;50.002;22.014;2023-02-11T11:28:36;35.40;;;18.10;;
65009;SDS011;51556;50.002;22.014;2023-02-11T11:31:04;41.20;;;18.60;;
65009;SDS011;51556;50.002;22.014;2023-02-11T11:33:39;28.90;;;15.40;;
65009;SDS011;51556;50.002;22.014;2023-02-11T11:36:08;37.60;;;17.40;;
65009;SDS011;51556;50.002;22.014;2023-02-11T11:38:37;35.10;;;16.40;;
65009;SDS011;51556;50.002;22.014;2023-02-11T11:41:21;36.30;;;19.20;;
65009;SDS011;51556;50.002;22.014;2023-02-11T11:43:56;31.50;;;15.00;;
65009;SDS011;51556;50.002;22.014;2023-02-11T11:51:33;33.40;;;15.50;;
65009;SDS011;51556;50.002;22.014;2023-02-11T11:54:02;34.60;;;16.50;;
65009;SDS011;51556;50.002;22.014;2023-02-11T11:59:00;32.00;;;15.00;;
65009;SDS011;51556;50.002;22.014;2023-02-11T12:15:33;39.90;;;20.50;;
65009;SDS011;51556;50.002;22.014;2023-02-11T12:26:41;36.30;;;17.80;;
65009;SDS011;51556;50.002;22.014;2023-02-11T12:39:08;37.70;;;18.60;;
65009;SDS011;51556;50.002;22.014;2023-02-11T12:42:43;38.70;;;19.70;;
65009;SDS011;51556;50.002;22.014;2023-02-11T12:50:24;38.50;;;19.40;;
65009;SDS011;51556;50.002;22.014;2023-02-11T12:55:56;39.90;;;21.10;;
65009;SDS011;51556;50.002;22.014;2023-02-11T12:58:29;42.40;;;21.30;;
65009;SDS011;51556;50.002;22.014;2023-02-11T13:01:04;38.00;;;18.60;;
65009;SDS011;51556;50.002;22.014;2023-02-11T13:03:42;37.20;;;18.70;;
65009;SDS011;51556;50.002;22.014;2023-02-11T13:06:55;38.50;;;19.40;;
65009;SDS011;51556;50.002;22.014;2023-02-11T13:09:37;36.60;;;19.10;;
65009;SDS011;51556;50.002;22.014;2023-02-11T13:12:08;37.40;;;17.50;;
65009;SDS011;51556;50.002;22.014;2023-02-11T13:14:56;43.30;;;20.00;;
65009;SDS011;51556;50.002;22.014;2023-02-11T13:25:47;41.40;;;19.60;;
65009;SDS011;51556;50.002;22.014;2023-02-11T13:31:09;41.70;;;19.40;;
65009;SDS011;51556;50.002;22.014;2023-02-11T13:33:39;42.00;;;20.70;;
65009;SDS011;51556;50.002;22.014;2023-02-11T13:36:16;39.40;;;18.80;;
65009;SDS011;51556;50.002;22.014;2023-02-11T13:38:51;41.70;;;20.10;;
65009;SDS011;51556;50.002;22.014;2023-02-11T13:41:23;37.10;;;19.50;;
65009;SDS011;51556;50.002;22.014;2023-02-11T13:43:56;40.70;;;21.00;;
65009;SDS011;51556;50.002;22.014;2023-02-11T13:46:27;43.50;;;21.50;;
65009;SDS011;51556;50.002;22.014;2023-02-11T13:48:54;44.00;;;20.30;;
65009;SDS011;51556;50.002;22.014;2023-02-11T13:51:36;40.90;;;20.30;;
65009;SDS011;51556;50.002;22.014;2023-02-11T13:54:06;40.00;;;18.70;;
65009;SDS011;51556;50.002;22.014;2023-02-11T13:56:42;37.30;;;19.70;;
65009;SDS011;51556;50.002;22.014;2023-02-11T14:02:01;38.60;;;19.90;;
65009;SDS011;51556;50.002;22.014;2023-02-11T14:11:02;38.30;;;18.70;;
65009;SDS011;51556;50.002;22.014;2023-02-11T14:24:44;39.30;;;19.10;;
65009;SDS011;51556;50.002;22.014;2023-02-11T14:27:14;41.80;;;20.50;;
65009;SDS011;51556;50.002;22.014;2023-02-11T14:42:48;45.60;;;23.00;;
65009;SDS011;51556;50.002;22.014;2023-02-11T14:45:17;91.30;;;36.90;;
65009;SDS011;51556;50.002;22.014;2023-02-11T14:50:45;46.20;;;23.40;;
65009;SDS011;51556;50.002;22.014;2023-02-11T14:53:18;41.80;;;19.80;;
65009;SDS011;51556;50.002;22.014;2023-02-11T14:55:52;54.90;;;25.40;;
65009;SDS011;51556;50.002;22.014;2023-02-11T15:03:29;52.40;;;27.40;;
65009;SDS011;51556;50.002;22.014;2023-02-11T15:06:02;48.20;;;23.20;;
65009;SDS011;51556;50.002;22.014;2023-02-11T15:08:30;63.10;;;32.70;;
65009;SDS011;51556;50.002;22.014;2023-02-11T15:10:58;56.40;;;28.10;;
65009;SDS011;51556;50.002;22.014;2023-02-11T15:13:26;103.60;;;47.00;;
65009;SDS011;51556;50.002;22.014;2023-02-11T15:15:59;73.90;;;34.90;;
65009;SDS011;51556;50.002;22.014;2023-02-11T15:18:34;67.60;;;33.40;;
65009;SDS011;51556;50.002;22.014;2023-02-11T15:21:26;64.60;;;33.20;;
65009;SDS011;51556;50.002;22.014;2023-02-11T15:24:05;63.60;;;30.70;;
65009;SDS011;51556;50.002;22.014;2023-02-11T15:26:54;52.40;;;26.70;;
65009;SDS011;51556;50.002;22.014;2023-02-11T15:29:27;58.10;;;27.90;;
65009;SDS011;51556;50.002;22.014;2023-02-11T15:34:42;63.40;;;30.00;;
65009;SDS011;51556;50.002;22.014;2023-02-11T15:37:22;76.70;;;34.60;;
65009;SDS011;51556;50.002;22.014;2023-02-11T15:40:07;67.70;;;29.50;;
65009;SDS011;51556;50.002;22.014;2023-02-11T15:42:39;80.40;;;33.40;;
65009;SDS011;51556;50.002;22.014;2023-02-11T15:45:16;81.30;;;35.30;;
65009;SDS011;51556;50.002;22.014;2023-02-11T15:48:01;91.00;;;38.40;;
65009;SDS011;51556;50.002;22.014;2023-02-11T15:50:33;80.60;;;37.20;;
65009;SDS011;51556;50.002;22.014;2023-02-11T15:53:12;70.40;;;32.30;;
65009;SDS011;51556;50.002;22.014;2023-02-11T15:56:01;87.60;;;39.80;;
65009;SDS011;51556;50.002;22.014;2023-02-11T15:58:44;71.90;;;34.70;;
65009;SDS011;51556;50.002;22.014;2023-02-11T16:01:12;56.00;;;27.10;;
65009;SDS011;51556;50.002;22.014;2023-02-11T16:03:39;61.90;;;29.30;;
65009;SDS011;51556;50.002;22.014;2023-02-11T16:11:35;91.20;;;40.30;;
65009;SDS011;51556;50.002;22.014;2023-02-11T16:17:11;64.30;;;29.30;;
65009;SDS011;51556;50.002;22.014;2023-02-11T16:19:46;78.70;;;37.60;;
65009;SDS011;51556;50.002;22.014;2023-02-11T16:22:15;53.10;;;25.10;;
65009;SDS011;51556;50.002;22.014;2023-02-11T16:24:45;64.40;;;32.90;;
65009;SDS011;51556;50.002;22.014;2023-02-11T16:27:19;76.90;;;36.20;;
65009;SDS011;51556;50.002;22.014;2023-02-11T16:29:47;60.70;;;30.30;;
65009;SDS011;51556;50.002;22.014;2023-02-11T16:34:40;56.50;;;28.30;;
65009;SDS011;51556;50.002;22.014;2023-02-11T16:37:05;54.30;;;27.00;;
65009;SDS011;51556;50.002;22.014;2023-02-11T16:39:31;68.40;;;32.50;;
65009;SDS011;51556;50.002;22.014;2023-02-11T16:41:57;64.10;;;31.90;;
65009;SDS011;51556;50.002;22.014;2023-02-11T16:44:22;58.60;;;27.80;;
65009;SDS011;51556;50.002;22.014;2023-02-11T16:46:48;56.30;;;29.50;;
65009;SDS011;51556;50.002;22.014;2023-02-11T16:49:19;65.80;;;32.00;;
65009;SDS011;51556;50.002;22.014;2023-02-11T16:51:48;60.00;;;29.40;;
65009;SDS011;51556;50.002;22.014;2023-02-11T16:54:16;62.60;;;31.30;;
65009;SDS011;51556;50.002;22.014;2023-02-11T16:56:43;61.30;;;29.10;;
65009;SDS011;51556;50.002;22.014;2023-02-11T16:59:09;57.90;;;29.40;;
65009;SDS011;51556;50.002;22.014;2023-02-11T17:01:35;55.30;;;28.00;;
65009;SDS011;51556;50.002;22.014;2023-02-11T17:04:03;58.90;;;29.60;;
65009;SDS011;51556;50.002;22.014;2023-02-11T17:06:30;59.40;;;29.70;;
65009;SDS011;51556;50.002;22.014;2023-02-11T17:08:57;56.70;;;28.60;;
65009;SDS011;51556;50.002;22.014;2023-02-11T17:11:23;58.00;;;27.60;;
65009;SDS011;51556;50.002;22.014;2023-02-11T17:13:48;61.00;;;30.90;;
65009;SDS011;51556;50.002;22.014;2023-02-11T17:16:18;71.30;;;34.40;;
65009;SDS011;51556;50.002;22.014;2023-02-11T17:18:46;62.40;;;28.80;;
65009;SDS011;51556;50.002;22.014;2023-02-11T17:21:12;58.40;;;27.80;;
65009;SDS011;51556;50.002;22.014;2023-02-11T17:23:38;55.40;;;27.20;;
65009;SDS011;51556;50.002;22.014;2023-02-11T17:26:04;63.00;;;29.80;;